Best, Texas
Current Conditions -  °F | °C
As of 5:15 PM on Saturday 25 Oct 2014 (Local Time) from KOZA Reporting Station
Clear Clear  
Wind Chill: 82°   Ceiling: Unl
Heat Index: 82°   Visibility: 10mi
Dew Point: 46°   Wind: 10mph
Humidity: 28%   Direction: 200°SSW
Pressure: 30.14"   Gusts: 16mph
Location:  31.3662°N, 101.523°W
Report Text: KOZA 252215Z AUTO 20009G14KT 10SM CLR 28/08 A3014 RMK AO2
Loading
Personal Weather Stations






























Interactive Weather Map
Tropical Storm Tracking
New forecast layout! Learn more

10-Day Weather Forecast

Advertisements
Track Severe Weather on mobile